createdAt,value
2022-09-17T00:00:51.414Z,7.60
2022-09-17T00:06:09.951Z,7.70
2022-09-17T00:11:33.433Z,7.50
2022-09-17T00:16:41.520Z,7.40
2022-09-17T00:21:44.512Z,7.50
2022-09-17T00:26:48.056Z,7.40
2022-09-17T00:31:50.912Z,7.40
2022-09-17T00:36:53.399Z,7.40
2022-09-17T00:41:55.786Z,7.40
2022-09-17T00:46:58.866Z,7.20
2022-09-17T00:52:08.468Z,7.10
2022-09-17T00:57:11.509Z,7.00
2022-09-17T01:02:14.238Z,7.20
2022-09-17T01:07:42.029Z,7.20
2022-09-17T01:12:53.628Z,7.20
2022-09-17T01:18:10.057Z,7.00
2022-09-17T01:23:50.502Z,7.10
2022-09-17T01:29:30.119Z,7.10
2022-09-17T01:34:46.059Z,6.80
2022-09-17T01:40:08.777Z,6.80
2022-09-17T01:45:22.520Z,6.80
2022-09-17T01:50:33.188Z,6.60
2022-09-17T01:55:40.630Z,6.50
2022-09-17T02:00:48.799Z,6.50
2022-09-17T02:06:05.455Z,6.60
2022-09-17T02:11:15.180Z,6.60
2022-09-17T02:16:32.854Z,6.50
2022-09-17T02:21:41.412Z,6.60
2022-09-17T02:26:50.406Z,6.60
2022-09-17T02:31:53.016Z,6.60
2022-09-17T02:36:56.836Z,6.80
2022-09-17T02:42:10.958Z,6.70
2022-09-17T02:47:34.680Z,6.80
2022-09-17T02:52:46.042Z,6.90
2022-09-17T02:57:59.347Z,6.90
2022-09-17T03:03:12.525Z,6.90
2022-09-17T03:08:18.543Z,6.80
2022-09-17T03:13:20.905Z,7.10
2022-09-17T03:18:23.918Z,7.10
2022-09-17T03:23:28.051Z,7.00
2022-09-17T03:28:30.541Z,7.00
2022-09-17T03:33:33.700Z,7.20
2022-09-17T03:38:38.485Z,7.40
2022-09-17T03:43:40.916Z,7.60
2022-09-17T03:48:43.243Z,7.70
2022-09-17T03:53:45.716Z,7.90
2022-09-17T03:58:48.267Z,8.10
2022-09-17T04:03:50.801Z,8.20
2022-09-17T04:08:53.488Z,8.20
2022-09-17T04:13:55.990Z,8.40
2022-09-17T04:18:59.844Z,8.40
2022-09-17T04:24:02.650Z,8.50
2022-09-17T04:29:05.743Z,8.70
2022-09-17T04:34:08.624Z,8.90
2022-09-17T04:39:11.139Z,9.10
2022-09-17T04:44:13.613Z,9.30
2022-09-17T04:49:16.084Z,9.30
2022-09-17T04:54:18.674Z,9.40
2022-09-17T04:59:21.128Z,9.40
2022-09-17T05:04:23.600Z,9.40
2022-09-17T05:09:26.818Z,9.50
2022-09-17T05:14:29.280Z,9.50
2022-09-17T05:19:32.492Z,9.60
2022-09-17T05:24:39.267Z,9.60
2022-09-17T05:29:41.762Z,9.70
2022-09-17T05:34:44.122Z,9.70
2022-09-17T05:39:46.557Z,9.60
2022-09-17T05:44:48.960Z,9.70
2022-09-17T05:49:51.417Z,9.80
2022-09-17T05:54:54.538Z,9.80
2022-09-17T05:59:57.014Z,9.90
2022-09-17T06:05:01.800Z,9.80
2022-09-17T06:10:06.107Z,9.80
2022-09-17T06:15:08.926Z,10.10
2022-09-17T06:20:11.458Z,10.20
2022-09-17T06:25:14.152Z,10.30
2022-09-17T06:30:16.863Z,10.40
2022-09-17T06:35:20.436Z,10.40
2022-09-17T06:40:23.750Z,10.50
2022-09-17T06:45:27.265Z,10.60
2022-09-17T06:50:29.666Z,10.50
2022-09-17T06:55:32.077Z,10.40
2022-09-17T07:00:36.229Z,10.20
2022-09-17T07:05:38.841Z,10.30
2022-09-17T07:10:41.382Z,10.40
2022-09-17T07:15:43.926Z,10.50
2022-09-17T07:20:53.835Z,10.70
2022-09-17T07:25:58.339Z,10.70
2022-09-17T07:31:04.987Z,10.60
2022-09-17T07:36:15.581Z,10.30
2022-09-17T07:41:18.257Z,10.50
2022-09-17T07:46:21.883Z,10.60
2022-09-17T07:51:28.466Z,10.80
2022-09-17T07:56:31.009Z,11.10
2022-09-17T08:01:36.758Z,11.00
2022-09-17T08:06:41.088Z,11.00
2022-09-17T08:11:55.689Z,11.60
2022-09-17T08:16:59.254Z,11.60
2022-09-17T08:22:01.879Z,11.70
2022-09-17T08:27:04.445Z,11.50
2022-09-17T08:32:06.915Z,11.30
2022-09-17T08:37:09.307Z,11.30
2022-09-17T08:42:32.849Z,11.50
2022-09-17T08:47:38.577Z,11.50
2022-09-17T08:53:09.263Z,11.30
2022-09-17T08:58:17.257Z,11.30
2022-09-17T09:03:29.270Z,11.30
2022-09-17T09:08:35.397Z,11.30
2022-09-17T09:13:48.180Z,11.50
2022-09-17T09:18:56.229Z,11.80
2022-09-17T09:24:22.461Z,12.70
2022-09-17T09:29:48.145Z,13.00
2022-09-17T09:34:51.495Z,13.60
2022-09-17T09:39:56.587Z,14.30
2022-09-17T09:45:28.411Z,14.20
2022-09-17T09:51:07.136Z,13.70
2022-09-17T09:56:10.070Z,13.60
2022-09-17T10:01:20.641Z,13.30
2022-09-17T10:06:23.811Z,13.30
2022-09-17T10:11:33.191Z,13.30
2022-09-17T10:16:36.615Z,13.30
2022-09-17T10:21:41.420Z,13.30
2022-09-17T10:26:46.985Z,13.30
2022-09-17T10:31:57.346Z,13.40
2022-09-17T10:37:00.045Z,13.50
2022-09-17T10:42:12.604Z,13.40
2022-09-17T10:47:30.339Z,13.10
2022-09-17T10:52:44.022Z,13.10
2022-09-17T10:58:06.013Z,13.20
2022-09-17T11:03:08.420Z,13.10
2022-09-17T11:08:22.959Z,13.10
2022-09-17T11:13:43.161Z,13.10
2022-09-17T11:19:00.611Z,13.00
2022-09-17T11:24:24.435Z,12.90
2022-09-17T11:29:46.129Z,13.20
2022-09-17T11:35:11.453Z,13.40
2022-09-17T11:40:34.582Z,13.90
2022-09-17T11:45:41.820Z,14.50
2022-09-17T11:50:58.713Z,14.10
2022-09-17T11:56:16.742Z,13.90
2022-09-17T12:01:42.693Z,13.60
2022-09-17T12:06:56.938Z,13.60
2022-09-17T12:12:02.319Z,13.90
2022-09-17T12:17:08.234Z,14.20
2022-09-17T12:22:30.203Z,14.30
2022-09-17T12:28:00.502Z,14.50
2022-09-17T12:33:14.856Z,14.50
2022-09-17T12:38:27.181Z,14.50
2022-09-17T12:43:35.421Z,15.10
2022-09-17T12:48:49.614Z,14.90
2022-09-17T12:54:09.730Z,14.70
2022-09-17T12:59:26.601Z,15.10
2022-09-17T13:05:19.284Z,15.20
2022-09-17T13:10:42.161Z,15.00
2022-09-17T13:16:07.345Z,14.70
2022-09-17T13:21:25.587Z,14.80
2022-09-17T13:26:39.704Z,15.80
2022-09-17T13:31:44.551Z,14.90
2022-09-17T13:36:54.688Z,15.40
2022-09-17T13:42:24.411Z,15.60
2022-09-17T13:47:32.590Z,15.50
2022-09-17T13:52:39.812Z,15.70
2022-09-17T13:57:50.369Z,15.30
2022-09-17T14:02:53.054Z,15.00
2022-09-17T14:08:12.910Z,14.80
2022-09-17T14:13:39.394Z,15.00
2022-09-17T14:18:55.195Z,15.00
2022-09-17T14:24:01.514Z,15.10
2022-09-17T14:29:43.120Z,15.10
2022-09-17T14:34:45.641Z,15.20
2022-09-17T14:39:49.180Z,15.00
2022-09-17T14:44:59.210Z,14.80
2022-09-17T14:50:25.144Z,14.70
2022-09-17T14:55:31.863Z,14.50
2022-09-17T15:00:38.836Z,14.50
2022-09-17T15:05:50.470Z,14.60
2022-09-17T15:11:06.928Z,14.30
2022-09-17T15:16:31.067Z,14.20
2022-09-17T15:21:44.940Z,14.10
2022-09-17T15:26:52.098Z,14.20
2022-09-17T15:31:55.082Z,14.20
2022-09-17T15:37:18.120Z,14.10
2022-09-17T15:42:31.104Z,14.00
2022-09-17T15:47:48.270Z,13.80
2022-09-17T15:52:57.937Z,13.70
2022-09-17T15:58:03.477Z,13.80
2022-09-17T16:03:40.649Z,13.70
2022-09-17T16:08:43.239Z,13.50
2022-09-17T16:13:49.818Z,13.30
2022-09-17T16:18:52.858Z,13.20
2022-09-17T16:23:55.292Z,13.30
2022-09-17T16:29:04.525Z,13.20
2022-09-17T16:34:07.061Z,13.10
2022-09-17T16:39:09.646Z,12.90
2022-09-17T16:44:12.089Z,12.70
2022-09-17T16:49:15.381Z,12.40
2022-09-17T16:54:17.760Z,12.20
2022-09-17T16:59:20.360Z,12.10
2022-09-17T17:04:22.873Z,11.90
2022-09-17T17:09:25.476Z,11.90
2022-09-17T17:14:27.981Z,11.90
2022-09-17T17:19:31.042Z,11.70
2022-09-17T17:24:33.555Z,11.70
2022-09-17T17:29:37.122Z,11.70
2022-09-17T17:34:39.690Z,11.70
2022-09-17T17:39:42.255Z,11.80
2022-09-17T17:44:44.667Z,11.80
2022-09-17T17:49:48.802Z,11.90
2022-09-17T17:54:51.225Z,11.90
2022-09-17T17:59:53.712Z,11.90
2022-09-17T18:04:58.039Z,11.90
2022-09-17T18:10:03.926Z,11.90
2022-09-17T18:15:07.816Z,11.70
2022-09-17T18:20:10.623Z,11.70
2022-09-17T18:25:13.345Z,11.70
2022-09-17T18:30:15.975Z,11.50
2022-09-17T18:35:23.095Z,11.30
2022-09-17T18:40:25.690Z,11.30
2022-09-17T18:45:28.831Z,11.40
2022-09-17T18:50:31.377Z,11.30
2022-09-17T18:55:33.963Z,11.30
2022-09-17T19:00:40.581Z,11.10
2022-09-17T19:05:43.626Z,10.90
2022-09-17T19:10:50.814Z,10.70
2022-09-17T19:15:59.568Z,10.40
2022-09-17T19:21:04.142Z,10.20
2022-09-17T19:26:08.218Z,10.00
2022-09-17T19:31:20.824Z,9.80
2022-09-17T19:36:23.380Z,9.60
2022-09-17T19:41:26.331Z,9.50
2022-09-17T19:46:33.926Z,9.60
2022-09-17T19:51:37.711Z,9.60
2022-09-17T19:56:41.550Z,9.60
2022-09-17T20:01:49.106Z,9.60
2022-09-17T20:06:51.896Z,9.60
2022-09-17T20:11:54.613Z,9.60
2022-09-17T20:17:00.024Z,9.70
2022-09-17T20:22:02.513Z,9.70
2022-09-17T20:27:05.297Z,9.60
2022-09-17T20:32:07.745Z,9.70
2022-09-17T20:37:13.621Z,9.80
2022-09-17T20:42:16.325Z,10.00
2022-09-17T20:47:18.929Z,10.10
2022-09-17T20:52:21.884Z,10.20
2022-09-17T20:57:24.985Z,10.20
2022-09-17T21:02:28.221Z,10.30
2022-09-17T21:07:33.145Z,10.30
2022-09-17T21:12:35.813Z,10.40
2022-09-17T21:17:40.698Z,10.40
2022-09-17T21:22:43.685Z,10.40
2022-09-17T21:27:46.051Z,10.40
2022-09-17T21:32:52.617Z,10.50
2022-09-17T21:37:54.983Z,10.50
2022-09-17T21:42:57.509Z,10.60
2022-09-17T21:47:59.974Z,10.60
2022-09-17T21:53:02.734Z,10.60
2022-09-17T21:58:05.212Z,10.60
2022-09-17T22:03:07.700Z,10.60
2022-09-17T22:08:10.332Z,10.60
2022-09-17T22:13:12.724Z,10.60
2022-09-17T22:18:15.270Z,10.60
2022-09-17T22:23:17.784Z,10.60
2022-09-17T22:28:21.709Z,10.40
2022-09-17T22:33:26.657Z,10.40
2022-09-17T22:38:29.248Z,10.30
2022-09-17T22:43:32.088Z,10.20
2022-09-17T22:48:34.576Z,10.10
2022-09-17T22:53:38.045Z,10.00
2022-09-17T22:58:41.344Z,10.00
2022-09-17T23:03:44.402Z,9.90
2022-09-17T23:08:47.090Z,10.00
2022-09-17T23:13:50.790Z,10.00
2022-09-17T23:18:54.352Z,10.10
2022-09-17T23:23:57.108Z,10.20
2022-09-17T23:29:04.980Z,10.20
2022-09-17T23:34:08.272Z,10.20
2022-09-17T23:39:12.088Z,10.20
2022-09-17T23:44:16.265Z,10.10
2022-09-17T23:49:18.986Z,10.00
2022-09-17T23:54:21.486Z,10.00
2022-09-17T23:59:24.040Z,9.90
